Time;durP1;ratioP1;P1;durP2;ratioP2;P2;SDS_P1;SDS_P2;PMS_P1;PMS_P2;Temp;Humidity;BMP_temperature;BMP_pressure;BME280_temperature;BME280_humidity;BME280_pressure;Samples;Min_cycle;Max_cycle;Signal;HPM_P1;HPM_P2
2024/01/06 00:00:16;;;;;;;8.00;2.13;;;4.50;99.90;;;;;;4915009;29;20235;-54
2024/01/06 00:02:44;;;;;;;5.85;2.10;;;4.50;99.90;;;;;;4915017;29;20214;-54
2024/01/06 00:05:12;;;;;;;6.38;2.60;;;4.60;99.90;;;;;;4915070;29;20325;-53
2024/01/06 00:07:40;;;;;;;3.10;2.10;;;4.60;99.90;;;;;;4914857;29;20214;-55
2024/01/06 00:10:08;;;;;;;7.32;2.88;;;4.60;99.90;;;;;;4914843;29;20320;-53
2024/01/06 00:12:36;;;;;;;7.18;2.70;;;4.60;99.90;;;;;;4916882;29;20203;-53
2024/01/06 00:15:07;;;;;;;9.18;2.65;;;4.60;99.90;;;;;;4918967;29;20230;-53
2024/01/06 00:17:35;;;;;;;4.75;2.10;;;4.60;99.90;;;;;;4918902;29;20273;-53
2024/01/06 00:20:04;;;;;;;4.07;2.50;;;4.60;99.90;;;;;;4918890;29;20294;-53
2024/01/06 00:22:32;;;;;;;3.35;2.28;;;4.70;99.90;;;;;;4918739;29;20594;-54
2024/01/06 00:25:00;;;;;;;4.15;2.33;;;4.70;99.90;;;;;;4918807;29;20799;-53
2024/01/06 00:27:28;;;;;;;8.88;2.28;;;4.70;99.90;;;;;;4918756;29;20221;-53
2024/01/06 00:29:56;;;;;;;3.28;2.00;;;4.70;99.90;;;;;;4918607;29;20230;-55
2024/01/06 00:32:25;;;;;;;8.23;3.03;;;4.80;99.90;;;;;;4918746;29;20667;-53
2024/01/06 00:34:53;;;;;;;5.53;2.47;;;4.80;99.90;;;;;;4918396;29;20281;-54
2024/01/06 00:37:21;;;;;;;3.85;2.50;;;4.80;99.90;;;;;;4918876;29;20211;-53
2024/01/06 00:39:49;;;;;;;4.90;2.70;;;4.80;99.90;;;;;;4918855;29;20260;-53
2024/01/06 00:42:17;;;;;;;6.43;2.63;;;4.90;99.90;;;;;;4937707;29;20209;-53
2024/01/06 00:44:46;;;;;;;5.30;2.70;;;4.90;99.90;;;;;;4937520;29;20260;-53
2024/01/06 00:47:13;;;;;;;9.50;2.78;;;4.90;99.90;;;;;;4937307;29;20206;-57
2024/01/06 00:49:43;;;;;;;6.68;2.60;;;4.90;99.90;;;;;;4937242;29;21012;-53
2024/01/06 00:52:11;;;;;;;5.22;2.53;;;5.00;99.90;;;;;;4937337;29;20206;-54
2024/01/06 00:54:39;;;;;;;7.90;2.70;;;5.00;99.90;;;;;;4937304;29;20738;-53
2024/01/06 00:57:06;;;;;;;6.13;2.40;;;5.00;99.90;;;;;;4937135;29;20217;-53
2024/01/06 00:59:34;;;;;;;3.47;2.25;;;5.10;99.90;;;;;;4937061;29;20206;-53
2024/01/06 01:02:02;;;;;;;4.93;2.10;;;5.10;99.90;;;;;;4936861;29;20300;-55
2024/01/06 01:04:30;;;;;;;5.80;2.08;;;5.10;99.90;;;;;;4937078;29;20216;-55
2024/01/06 01:06:59;;;;;;;7.20;2.30;;;5.20;99.90;;;;;;4936826;29;20647;-56
2024/01/06 01:09:27;;;;;;;5.60;1.70;;;5.20;99.90;;;;;;4936740;29;20285;-53
2024/01/06 01:11:55;;;;;;;2.42;2.22;;;5.20;99.90;;;;;;4937073;29;20210;-53
2024/01/06 01:14:23;;;;;;;9.32;2.75;;;5.20;99.90;;;;;;4936891;29;20210;-53
2024/01/06 01:16:51;;;;;;;8.18;2.03;;;5.20;99.90;;;;;;4936729;29;20690;-53
2024/01/06 01:19:19;;;;;;;6.18;1.88;;;5.30;99.90;;;;;;4929087;29;20699;-54
2024/01/06 01:21:47;;;;;;;6.93;1.80;;;5.30;99.90;;;;;;4936836;29;20257;-53
2024/01/06 01:24:16;;;;;;;4.65;1.98;;;5.30;99.90;;;;;;4935632;29;20258;-54
2024/01/06 01:26:44;;;;;;;8.27;2.40;;;5.30;99.90;;;;;;4936579;29;20230;-56
2024/01/06 01:29:12;;;;;;;5.85;2.08;;;5.30;99.90;;;;;;4936345;29;20317;-53
2024/01/06 01:31:40;;;;;;;6.93;2.42;;;5.30;99.90;;;;;;4936582;29;20680;-54
2024/01/06 01:34:08;;;;;;;4.35;2.33;;;5.40;99.90;;;;;;4936538;29;20218;-53
2024/01/06 01:36:36;;;;;;;5.50;2.13;;;5.30;99.90;;;;;;4936394;29;20317;-53
2024/01/06 01:39:04;;;;;;;10.50;2.22;;;5.30;99.90;;;;;;4936377;29;20214;-54
2024/01/06 01:41:33;;;;;;;6.57;2.30;;;5.30;99.90;;;;;;4936498;29;20249;-56
2024/01/06 01:44:01;;;;;;;5.88;2.10;;;5.40;99.90;;;;;;4936338;29;20654;-53
2024/01/06 01:46:30;;;;;;;3.13;2.03;;;5.40;99.90;;;;;;4936297;29;20786;-54
2024/01/06 01:48:59;;;;;;;6.70;2.13;;;5.40;99.90;;;;;;4936195;29;20592;-53
2024/01/06 01:51:28;;;;;;;5.90;2.10;;;5.40;99.90;;;;;;4936490;29;20202;-55
2024/01/06 01:53:56;;;;;;;5.35;2.10;;;5.40;99.90;;;;;;4936158;29;20213;-54
2024/01/06 01:56:24;;;;;;;4.95;2.20;;;5.50;99.90;;;;;;4936224;29;20225;-53
2024/01/06 01:58:53;;;;;;;5.85;1.80;;;5.50;99.90;;;;;;4935956;29;20207;-53
2024/01/06 02:01:21;;;;;;;7.45;2.63;;;5.40;99.90;;;;;;4928460;29;20210;-57
2024/01/06 02:03:49;;;;;;;7.45;2.10;;;5.50;99.90;;;;;;4935370;29;20212;-60
2024/01/06 02:06:17;;;;;;;7.22;2.33;;;5.50;99.90;;;;;;4934455;29;20222;-53
2024/01/06 02:08:45;;;;;;;9.20;1.95;;;5.50;99.90;;;;;;4935736;29;20206;-53
2024/01/06 02:11:13;;;;;;;4.95;1.90;;;5.50;99.90;;;;;;4935966;29;20265;-53
2024/01/06 02:13:41;;;;;;;4.55;1.60;;;5.50;99.90;;;;;;4935792;29;20373;-53
2024/01/06 02:16:10;;;;;;;9.10;2.50;;;5.50;99.90;;;;;;4935974;29;20305;-53
2024/01/06 02:18:38;;;;;;;6.18;1.80;;;5.50;99.90;;;;;;4930212;29;20350;-55
2024/01/06 02:21:06;;;;;;;5.70;2.35;;;5.50;99.90;;;;;;4916812;29;20638;-56
2024/01/06 02:23:36;;;;;;;7.75;2.10;;;5.60;99.90;;;;;;4916814;29;20222;-58
2024/01/06 02:26:04;;;;;;;3.88;1.60;;;5.60;99.90;;;;;;4916713;29;20265;-58
2024/01/06 02:28:32;;;;;;;6.72;1.67;;;5.60;99.90;;;;;;4916428;29;20242;-58
2024/01/06 02:31:00;;;;;;;7.18;1.90;;;5.60;99.90;;;;;;4916370;29;20234;-57
2024/01/06 02:33:28;;;;;;;5.53;2.00;;;5.60;99.90;;;;;;4916453;29;20222;-57
2024/01/06 02:35:56;;;;;;;5.05;1.75;;;5.60;99.90;;;;;;4916364;29;20241;-54
2024/01/06 02:38:24;;;;;;;8.15;2.22;;;5.60;99.90;;;;;;4916184;29;20255;-57
2024/01/06 02:40:53;;;;;;;4.53;1.60;;;5.70;99.90;;;;;;4916384;29;20648;-53
2024/01/06 02:43:21;;;;;;;6.20;1.65;;;5.70;99.90;;;;;;4916172;29;20661;-53
2024/01/06 02:45:50;;;;;;;5.90;2.08;;;5.60;99.90;;;;;;4916145;29;20234;-53
2024/01/06 02:48:18;;;;;;;2.28;1.55;;;5.60;99.90;;;;;;4934543;29;20206;-53
2024/01/06 02:50:46;;;;;;;4.07;1.50;;;5.60;99.90;;;;;;4934970;29;20226;-53
2024/01/06 02:53:14;;;;;;;3.60;1.23;;;5.60;99.90;;;;;;4935146;29;20293;-53
2024/01/06 02:55:42;;;;;;;2.35;1.58;;;5.60;99.90;;;;;;4935108;29;20393;-53
2024/01/06 02:58:11;;;;;;;6.10;1.70;;;5.70;99.90;;;;;;4934615;29;20664;-53
2024/01/06 03:00:39;;;;;;;6.00;1.65;;;5.70;99.90;;;;;;4935205;29;20230;-54
2024/01/06 03:03:07;;;;;;;10.13;1.83;;;5.70;99.90;;;;;;4935082;29;20702;-55
2024/01/06 03:05:36;;;;;;;6.00;1.10;;;5.70;99.90;;;;;;4934828;29;20274;-55
2024/01/06 03:08:05;;;;;;;6.28;1.55;;;5.70;99.90;;;;;;4934711;29;20214;-53
2024/01/06 03:10:34;;;;;;;5.00;1.55;;;5.70;99.90;;;;;;4934627;29;20222;-54
2024/01/06 03:13:01;;;;;;;5.30;1.40;;;5.80;99.90;;;;;;4934595;29;20246;-53
2024/01/06 03:15:31;;;;;;;1.83;1.30;;;5.80;99.90;;;;;;4934812;29;20234;-53
2024/01/06 03:17:58;;;;;;;3.08;1.50;;;5.80;99.90;;;;;;4934722;29;20206;-53
2024/01/06 03:20:27;;;;;;;7.20;2.15;;;5.80;99.90;;;;;;4934619;29;20241;-53
2024/01/06 03:22:54;;;;;;;7.03;2.70;;;5.90;99.90;;;;;;4934519;29;20692;-53
2024/01/06 03:25:22;;;;;;;6.40;2.90;;;5.90;99.90;;;;;;4934325;29;20226;-53
2024/01/06 03:27:50;;;;;;;7.93;2.22;;;5.90;99.90;;;;;;4934297;29;20672;-54
2024/01/06 03:30:18;;;;;;;7.15;1.90;;;5.90;99.90;;;;;;4934485;29;20225;-53
2024/01/06 03:32:47;;;;;;;5.28;2.28;;;5.90;99.90;;;;;;4934417;29;20292;-53
2024/01/06 03:35:15;;;;;;;6.63;1.60;;;5.90;99.90;;;;;;4934432;29;20263;-57
2024/01/06 03:37:44;;;;;;;3.53;1.65;;;5.90;99.90;;;;;;4933977;29;20206;-57
2024/01/06 03:40:13;;;;;;;5.13;1.27;;;5.90;99.90;;;;;;4934577;29;20260;-55
2024/01/06 03:42:41;;;;;;;6.43;1.33;;;5.90;99.90;;;;;;4934519;29;20244;-53
2024/01/06 03:45:09;;;;;;;3.75;2.30;;;5.90;99.90;;;;;;4934203;29;20240;-53
2024/01/06 03:47:37;;;;;;;3.13;1.08;;;5.90;99.90;;;;;;4933567;29;20582;-53
2024/01/06 03:50:07;;;;;;;5.63;1.33;;;5.90;99.90;;;;;;4934136;29;20229;-53
2024/01/06 03:52:35;;;;;;;6.43;1.30;;;5.90;99.90;;;;;;4933988;29;20300;-53
2024/01/06 03:55:03;;;;;;;4.07;1.15;;;5.90;99.90;;;;;;4934282;29;20304;-53
2024/01/06 03:57:31;;;;;;;2.50;1.00;;;5.90;99.90;;;;;;4933938;29;20297;-53
2024/01/06 03:59:59;;;;;;;3.13;1.10;;;5.90;99.90;;;;;;4934081;29;20213;-53
2024/01/06 04:02:27;;;;;;;4.20;1.20;;;5.90;99.90;;;;;;4933959;29;20633;-54
2024/01/06 04:04:55;;;;;;;1.80;1.13;;;5.90;99.90;;;;;;4933913;29;20237;-53
2024/01/06 04:07:24;;;;;;;6.07;1.63;;;5.90;99.90;;;;;;4933370;29;20587;-54
2024/01/06 04:09:52;;;;;;;1.27;1.10;;;5.90;99.90;;;;;;4933201;29;20241;-55
2024/01/06 04:12:20;;;;;;;2.72;1.48;;;5.90;99.90;;;;;;4933760;29;20230;-55
2024/01/06 04:14:48;;;;;;;5.32;1.45;;;5.90;99.90;;;;;;4933975;29;20237;-57
2024/01/06 04:17:16;;;;;;;8.93;1.75;;;5.90;99.90;;;;;;4933668;29;20771;-56
2024/01/06 04:19:44;;;;;;;2.67;1.23;;;5.90;99.90;;;;;;4933944;29;20206;-53
2024/01/06 04:22:12;;;;;;;4.55;1.42;;;5.80;99.90;;;;;;4933970;29;20209;-53
2024/01/06 04:24:41;;;;;;;3.75;1.30;;;5.80;99.90;;;;;;4933975;29;20245;-53
2024/01/06 04:27:10;;;;;;;4.70;1.55;;;5.90;99.90;;;;;;4979536;23;20294;-59
2024/01/06 04:29:39;;;;;;;5.90;1.60;;;5.90;99.90;;;;;;4972502;28;20228;-60
2024/01/06 04:32:07;;;;;;;3.60;1.35;;;5.90;99.90;;;;;;4972354;28;20243;-59
2024/01/06 04:34:35;;;;;;;7.03;1.77;;;5.90;99.90;;;;;;4972818;28;20216;-58
2024/01/06 04:37:03;;;;;;;4.60;1.65;;;5.90;99.90;;;;;;4972255;28;20241;-59
2024/01/06 04:39:31;;;;;;;3.17;1.50;;;5.90;99.90;;;;;;4972301;28;20232;-59
2024/01/06 04:42:05;;;;;;;3.25;1.30;;;5.90;99.90;;;;;;4972432;28;20304;-59
2024/01/06 04:44:33;;;;;;;5.70;1.67;;;5.90;99.90;;;;;;4972478;28;20288;-60
2024/01/06 04:47:01;;;;;;;5.35;1.38;;;5.90;99.90;;;;;;4972483;28;20259;-59
2024/01/06 04:49:29;;;;;;;2.65;1.13;;;5.90;99.90;;;;;;4972130;28;20698;-60
2024/01/06 04:51:57;;;;;;;8.50;1.55;;;5.90;99.90;;;;;;4971998;28;20287;-59
2024/01/06 04:54:25;;;;;;;6.50;1.80;;;5.90;99.90;;;;;;4971522;28;20216;-59
2024/01/06 04:56:53;;;;;;;3.40;1.55;;;6.00;99.90;;;;;;4972166;28;20236;-58
2024/01/06 04:59:22;;;;;;;4.88;1.90;;;6.00;99.90;;;;;;4974919;28;20645;-60
2024/01/06 05:01:51;;;;;;;2.85;1.50;;;6.00;99.90;;;;;;4976213;28;20592;-59
2024/01/06 05:04:19;;;;;;;5.10;1.52;;;6.00;99.90;;;;;;4975788;28;20303;-60
2024/01/06 05:06:46;;;;;;;5.70;1.58;;;6.00;99.90;;;;;;4975939;28;20300;-60
2024/01/06 05:09:15;;;;;;;5.47;1.38;;;6.00;99.90;;;;;;4975320;28;20296;-59
2024/01/06 05:11:44;;;;;;;4.30;1.48;;;6.00;99.90;;;;;;4975668;28;20228;-60
2024/01/06 05:14:12;;;;;;;5.03;1.50;;;6.00;99.90;;;;;;4975478;28;20807;-60
2024/01/06 05:16:41;;;;;;;3.80;1.60;;;6.00;99.90;;;;;;4975766;28;20309;-58
2024/01/06 05:19:10;;;;;;;6.57;2.22;;;6.00;99.90;;;;;;4975351;28;20319;-60
2024/01/06 05:21:38;;;;;;;6.22;1.50;;;6.00;99.90;;;;;;4975665;28;20296;-59
2024/01/06 05:24:06;;;;;;;4.28;1.55;;;6.00;99.90;;;;;;4975506;28;20212;-59
2024/01/06 05:26:34;;;;;;;3.55;1.42;;;6.00;99.90;;;;;;4975633;28;20320;-59
2024/01/06 05:29:03;;;;;;;4.15;1.40;;;6.00;99.90;;;;;;4975262;28;20291;-60
2024/01/06 05:31:31;;;;;;;5.38;1.77;;;6.00;99.90;;;;;;4975519;28;20283;-59
2024/01/06 05:34:00;;;;;;;6.93;1.55;;;6.00;99.90;;;;;;4975395;28;20212;-60
2024/01/06 05:36:28;;;;;;;3.45;1.67;;;6.00;99.90;;;;;;4975260;28;20672;-59
2024/01/06 05:38:56;;;;;;;6.45;1.60;;;6.10;99.90;;;;;;4974951;28;20682;-59
2024/01/06 05:41:24;;;;;;;4.97;1.80;;;6.10;99.90;;;;;;4975522;28;20208;-59
2024/01/06 05:43:52;;;;;;;3.65;1.65;;;6.00;99.90;;;;;;4975281;28;20204;-60
2024/01/06 05:46:23;;;;;;;3.85;1.50;;;6.10;99.90;;;;;;4975210;28;20242;-60
2024/01/06 05:48:51;;;;;;;3.35;1.55;;;6.10;99.90;;;;;;4974626;28;20200;-60
2024/01/06 05:51:20;;;;;;;4.38;1.83;;;6.00;99.90;;;;;;4974845;28;20681;-59
2024/01/06 05:53:48;;;;;;;6.82;1.98;;;6.10;99.90;;;;;;4975088;28;20208;-60
2024/01/06 05:56:24;;;;;;;3.95;2.00;;;6.10;99.90;;;;;;4974967;28;20306;-60
2024/01/06 05:58:52;;;;;;;4.75;2.00;;;6.10;99.90;;;;;;4962837;28;20259;-61
2024/01/06 06:01:20;;;;;;;5.35;1.65;;;6.10;99.90;;;;;;4955536;29;20217;-60
2024/01/06 06:03:51;;;;;;;6.18;1.73;;;6.00;99.90;;;;;;4969117;28;20292;-59
2024/01/06 06:06:21;;;;;;;2.53;1.90;;;6.10;99.90;;;;;;4974927;28;20229;-59
2024/01/06 06:08:49;;;;;;;5.63;1.85;;;6.10;99.90;;;;;;4973655;28;20208;-59
2024/01/06 06:11:17;;;;;;;6.60;1.80;;;6.10;99.90;;;;;;4974000;28;20252;-59
2024/01/06 06:13:45;;;;;;;11.23;2.15;;;6.10;99.90;;;;;;4974115;28;20283;-60
2024/01/06 06:16:13;;;;;;;4.13;2.15;;;6.10;99.90;;;;;;4974349;28;20594;-60
2024/01/06 06:18:41;;;;;;;5.93;2.53;;;6.10;99.90;;;;;;4973553;28;20239;-59
2024/01/06 06:21:08;;;;;;;5.97;2.50;;;6.10;99.90;;;;;;4974665;28;20275;-59
2024/01/06 06:23:37;;;;;;;6.78;2.40;;;6.10;99.90;;;;;;4974143;28;20211;-60
2024/01/06 06:26:06;;;;;;;4.47;2.35;;;6.10;99.90;;;;;;4974479;28;20789;-59
2024/01/06 06:28:34;;;;;;;4.68;2.70;;;6.10;99.90;;;;;;4973727;28;20296;-60
2024/01/06 06:31:02;;;;;;;8.43;2.53;;;6.10;99.90;;;;;;4974531;28;20251;-59
2024/01/06 06:33:30;;;;;;;5.30;2.05;;;6.10;99.90;;;;;;4974182;28;20256;-60
2024/01/06 06:35:58;;;;;;;11.20;3.40;;;6.10;99.90;;;;;;4974211;28;20234;-60
2024/01/06 06:38:26;;;;;;;5.40;2.15;;;6.10;99.90;;;;;;4973822;28;20275;-61
2024/01/06 06:40:56;;;;;;;6.13;2.50;;;6.10;99.90;;;;;;4974309;28;20255;-60
2024/01/06 06:43:24;;;;;;;7.57;2.50;;;6.10;99.90;;;;;;4973916;28;20209;-60
2024/01/06 06:45:52;;;;;;;5.40;2.17;;;6.10;99.90;;;;;;4974154;28;20638;-59
2024/01/06 06:48:19;;;;;;;5.15;2.25;;;6.10;99.90;;;;;;4973583;28;20212;-59
2024/01/06 06:50:48;;;;;;;5.22;2.30;;;6.00;99.90;;;;;;4974048;28;20293;-60
2024/01/06 06:53:16;;;;;;;5.10;2.95;;;6.10;99.90;;;;;;4973732;28;20259;-59
2024/01/06 06:55:44;;;;;;;6.15;2.50;;;6.00;99.90;;;;;;4973749;28;20228;-59
2024/01/06 06:58:13;;;;;;;5.55;2.88;;;6.00;99.90;;;;;;4973719;28;20209;-60
2024/01/06 07:00:42;;;;;;;5.28;2.70;;;6.00;99.90;;;;;;4970012;28;20252;-63
2024/01/06 07:03:10;;;;;;;3.60;2.00;;;6.10;99.90;;;;;;4970242;28;20205;-62
2024/01/06 07:05:39;;;;;;;7.60;2.58;;;6.10;99.90;;;;;;4962297;28;20221;-62
2024/01/06 07:08:07;;;;;;;5.63;2.45;;;6.10;99.90;;;;;;4969196;28;20216;-62
2024/01/06 07:10:34;;;;;;;6.70;2.70;;;6.10;99.90;;;;;;4973794;28;20209;-62
2024/01/06 07:13:02;;;;;;;7.55;2.80;;;6.10;99.90;;;;;;4959463;28;20221;-63
2024/01/06 07:15:31;;;;;;;7.45;2.53;;;6.10;99.90;;;;;;4953158;28;20256;-62
2024/01/06 07:17:59;;;;;;;4.88;2.55;;;6.10;99.90;;;;;;4954101;29;20209;-62
2024/01/06 07:20:27;;;;;;;4.72;2.40;;;6.10;99.90;;;;;;4955877;28;20211;-62
2024/01/06 07:22:55;;;;;;;6.07;2.85;;;6.20;99.90;;;;;;4972682;28;20208;-63
2024/01/06 07:25:23;;;;;;;5.80;2.45;;;6.20;99.90;;;;;;4973268;28;20393;-62
2024/01/06 07:27:51;;;;;;;6.70;2.35;;;6.20;99.90;;;;;;4973173;28;20208;-61
2024/01/06 07:30:22;;;;;;;4.63;2.33;;;6.20;99.90;;;;;;4973259;28;20204;-63
2024/01/06 07:32:51;;;;;;;6.25;2.58;;;6.20;99.90;;;;;;4972773;28;20231;-63
2024/01/06 07:35:20;;;;;;;7.00;2.58;;;6.20;99.90;;;;;;4956850;28;20209;-63
2024/01/06 07:37:47;;;;;;;12.40;2.63;;;6.10;99.90;;;;;;4973101;28;20224;-62
2024/01/06 07:40:16;;;;;;;4.32;2.85;;;6.20;99.90;;;;;;4964997;28;20290;-62
2024/01/06 07:42:44;;;;;;;5.43;2.30;;;6.10;99.90;;;;;;4957715;28;20702;-63
2024/01/06 07:45:13;;;;;;;8.65;2.95;;;6.10;99.90;;;;;;4972948;28;20232;-63
2024/01/06 07:47:41;;;;;;;10.07;2.75;;;6.20;99.90;;;;;;4961264;28;20215;-62
2024/01/06 07:50:11;;;;;;;5.07;2.70;;;6.20;99.90;;;;;;4953811;29;20216;-62
2024/01/06 07:52:39;;;;;;;5.25;2.47;;;6.20;99.90;;;;;;4956839;28;20304;-62
2024/01/06 07:55:07;;;;;;;6.60;3.10;;;6.20;99.90;;;;;;4971787;28;20662;-63
2024/01/06 07:57:35;;;;;;;9.07;3.50;;;6.20;99.90;;;;;;4972475;28;20271;-62
2024/01/06 08:00:04;;;;;;;5.18;2.55;;;6.20;99.90;;;;;;4958546;28;20241;-63
2024/01/06 08:02:33;;;;;;;7.22;3.15;;;6.10;99.90;;;;;;4955839;28;20217;-63
2024/01/06 08:05:01;;;;;;;7.80;2.80;;;6.20;99.90;;;;;;4958925;28;20304;-62
2024/01/06 08:07:30;;;;;;;8.60;2.58;;;6.20;99.90;;;;;;4955310;28;20198;-63
2024/01/06 08:09:58;;;;;;;6.38;2.92;;;6.20;99.90;;;;;;4959201;28;20247;-63
2024/01/06 08:12:26;;;;;;;6.35;3.00;;;6.20;99.90;;;;;;4970719;28;20219;-62
2024/01/06 08:14:54;;;;;;;7.63;2.97;;;6.20;99.90;;;;;;4959719;28;20214;-62
2024/01/06 08:17:22;;;;;;;9.40;2.85;;;6.20;99.90;;;;;;4954092;28;20304;-63
2024/01/06 08:19:50;;;;;;;5.63;2.85;;;6.20;99.90;;;;;;4972546;28;20212;-63
2024/01/06 08:22:18;;;;;;;6.40;3.10;;;6.20;99.90;;;;;;4972607;28;20313;-61
2024/01/06 08:24:47;;;;;;;5.07;2.95;;;6.10;99.90;;;;;;4972924;28;20785;-63
2024/01/06 08:27:15;;;;;;;5.90;3.28;;;6.20;99.90;;;;;;4956817;28;20248;-63
2024/01/06 08:29:43;;;;;;;7.05;3.30;;;6.10;99.90;;;;;;4953202;28;20561;-62
2024/01/06 08:32:11;;;;;;;7.70;3.33;;;6.10;99.90;;;;;;4960620;28;20217;-63
2024/01/06 08:34:39;;;;;;;6.47;3.60;;;6.20;99.90;;;;;;4972827;28;20231;-62
2024/01/06 08:37:07;;;;;;;9.77;3.03;;;6.20;99.90;;;;;;4962275;28;20228;-63
2024/01/06 08:39:35;;;;;;;9.73;3.35;;;6.20;99.90;;;;;;4965538;28;20237;-63
2024/01/06 08:42:04;;;;;;;5.82;3.25;;;6.20;99.90;;;;;;4974464;28;20705;-63
2024/01/06 08:44:32;;;;;;;5.97;3.60;;;6.20;99.90;;;;;;4974343;28;20295;-63
2024/01/06 08:47:00;;;;;;;8.43;3.25;;;6.30;99.90;;;;;;4975668;28;20268;-63
2024/01/06 08:49:28;;;;;;;6.70;3.92;;;6.30;99.90;;;;;;4975129;28;20213;-63
2024/01/06 08:51:56;;;;;;;6.70;3.47;;;6.30;99.90;;;;;;4975789;28;20255;-63
2024/01/06 08:54:24;;;;;;;3.72;2.90;;;6.40;99.90;;;;;;4975317;28;20235;-63
2024/01/06 08:56:52;;;;;;;5.45;3.22;;;6.40;99.90;;;;;;4975384;28;20235;-63
2024/01/06 08:59:21;;;;;;;5.70;3.35;;;6.40;99.90;;;;;;4975121;28;20674;-63
2024/01/06 09:01:49;;;;;;;5.53;3.67;;;6.40;99.90;;;;;;4976038;28;20208;-63
2024/01/06 09:04:17;;;;;;;7.35;3.30;;;6.40;99.90;;;;;;4975627;28;20208;-64
2024/01/06 09:06:46;;;;;;;6.40;3.53;;;6.40;99.90;;;;;;4968209;28;20335;-62
2024/01/06 09:09:14;;;;;;;7.80;3.33;;;6.40;99.90;;;;;;4974533;28;20205;-63
2024/01/06 09:11:43;;;;;;;5.22;3.20;;;6.40;99.90;;;;;;4975625;28;20677;-64
2024/01/06 09:14:11;;;;;;;5.10;3.22;;;6.40;99.90;;;;;;4973691;28;20228;-63
2024/01/06 09:16:41;;;;;;;3.55;3.03;;;6.40;99.90;;;;;;4974727;28;20283;-62
2024/01/06 09:19:09;;;;;;;5.18;2.92;;;6.40;99.90;;;;;;4974704;28;20296;-61
2024/01/06 09:21:37;;;;;;;6.47;3.22;;;6.50;99.90;;;;;;4975119;28;20213;-62
2024/01/06 09:24:06;;;;;;;4.63;3.00;;;6.50;99.90;;;;;;4975283;28;20263;-65
2024/01/06 09:26:34;;;;;;;7.15;3.92;;;6.50;99.90;;;;;;4975191;28;20243;-64
2024/01/06 09:29:02;;;;;;;8.13;3.25;;;6.50;99.90;;;;;;4974366;28;20299;-63
2024/01/06 09:31:30;;;;;;;10.25;3.58;;;6.50;99.90;;;;;;4975295;28;20213;-63
2024/01/06 09:34:02;;;;;;;7.00;3.72;;;6.40;99.90;;;;;;4974697;28;20256;-64
2024/01/06 09:36:31;;;;;;;7.38;3.50;;;6.50;99.90;;;;;;4974974;28;20235;-64
2024/01/06 09:39:00;;;;;;;12.20;3.85;;;6.50;99.90;;;;;;4962992;28;20236;-63
2024/01/06 09:41:27;;;;;;;10.65;3.47;;;6.50;99.90;;;;;;4964578;28;20216;-64
2024/01/06 09:43:56;;;;;;;7.47;4.30;;;6.50;99.90;;;;;;4965043;28;20209;-64
2024/01/06 09:46:25;;;;;;;7.18;3.55;;;6.60;99.90;;;;;;4954240;29;20233;-63
2024/01/06 09:48:54;;;;;;;7.05;3.50;;;6.60;99.90;;;;;;4965045;28;20754;-63
2024/01/06 09:51:23;;;;;;;11.32;3.92;;;6.60;99.90;;;;;;4957154;28;20217;-64
2024/01/06 09:53:56;;;;;;;6.68;3.60;;;6.60;99.90;;;;;;4955539;29;20746;-63
2024/01/06 09:56:25;;;;;;;7.43;3.90;;;6.60;99.90;;;;;;4963919;28;20296;-63
2024/01/06 09:58:53;;;;;;;6.32;3.72;;;6.60;99.90;;;;;;4974467;28;20291;-64
2024/01/06 10:01:21;;;;;;;5.72;3.88;;;6.60;99.90;;;;;;4975165;28;20236;-64
2024/01/06 10:03:48;;;;;;;7.93;4.07;;;6.70;99.90;;;;;;4974891;28;20245;-63
2024/01/06 10:06:16;;;;;;;8.43;4.32;;;6.70;99.90;;;;;;4974718;28;20669;-63
2024/01/06 10:08:49;;;;;;;5.88;4.28;;;6.70;99.90;;;;;;4973560;28;20205;-63
2024/01/06 10:11:16;;;;;;;7.82;4.43;;;6.70;99.90;;;;;;4974537;28;20299;-63
2024/01/06 10:13:45;;;;;;;8.40;4.60;;;6.70;99.90;;;;;;4974383;28;20212;-63
2024/01/06 10:16:13;;;;;;;8.77;4.82;;;6.80;99.90;;;;;;4974629;28;20383;-63
2024/01/06 10:18:41;;;;;;;8.05;4.57;;;6.80;99.90;;;;;;4974143;28;20782;-63
2024/01/06 10:21:09;;;;;;;6.65;4.32;;;6.80;99.90;;;;;;4974675;28;20212;-63
2024/01/06 10:23:37;;;;;;;6.40;4.07;;;6.90;99.90;;;;;;4974391;28;20258;-63
2024/01/06 10:26:07;;;;;;;10.10;4.70;;;6.90;99.90;;;;;;4974399;28;20342;-62
2024/01/06 10:28:35;;;;;;;12.50;4.60;;;6.90;99.90;;;;;;4974148;28;20232;-63
2024/01/06 10:31:03;;;;;;;14.18;5.07;;;7.00;99.90;;;;;;4974636;28;20255;-62
2024/01/06 10:33:31;;;;;;;9.52;5.47;;;7.00;99.90;;;;;;4956329;28;20225;-63
2024/01/06 10:35:59;;;;;;;13.38;5.95;;;7.00;99.90;;;;;;4950479;28;20237;-63
2024/01/06 10:38:27;;;;;;;10.98;5.25;;;7.10;99.90;;;;;;4954681;28;20256;-63
2024/01/06 10:40:59;;;;;;;7.95;5.60;;;7.10;99.90;;;;;;4952048;28;20738;-62
2024/01/06 10:43:29;;;;;;;10.25;5.57;;;7.20;99.90;;;;;;4951511;28;20768;-63
2024/01/06 10:45:57;;;;;;;9.95;4.43;;;7.20;99.90;;;;;;4954466;28;20662;-63
2024/01/06 10:48:27;;;;;;;7.55;4.70;;;7.20;99.90;;;;;;4968490;28;20204;-62
2024/01/06 10:50:55;;;;;;;7.53;5.10;;;7.20;99.90;;;;;;4956728;28;20214;-63
2024/01/06 10:53:23;;;;;;;7.63;5.20;;;7.30;99.90;;;;;;4954267;29;20253;-64
2024/01/06 10:55:52;;;;;;;11.95;5.25;;;7.30;99.90;;;;;;4957465;28;20275;-63
2024/01/06 10:58:23;;;;;;;6.78;4.90;;;7.40;99.90;;;;;;4972808;28;20236;-62
2024/01/06 11:00:52;;;;;;;12.77;4.97;;;7.40;99.90;;;;;;4965400;28;20761;-62
2024/01/06 11:03:20;;;;;;;5.80;4.60;;;7.40;99.90;;;;;;4973476;28;20213;-63
2024/01/06 11:05:48;;;;;;;8.30;4.57;;;7.50;99.90;;;;;;4973272;28;20220;-63
2024/01/06 11:08:16;;;;;;;8.65;4.95;;;7.60;99.90;;;;;;4973046;28;20263;-62
2024/01/06 11:10:44;;;;;;;8.50;5.15;;;7.60;99.90;;;;;;4965446;28;20343;-63
2024/01/06 11:13:13;;;;;;;6.80;4.90;;;7.60;99.90;;;;;;4959377;28;20213;-63
2024/01/06 11:15:42;;;;;;;7.53;4.75;;;7.70;99.90;;;;;;4955788;28;20229;-64
2024/01/06 11:18:26;;;;;;;10.82;5.55;;;7.70;99.90;;;;;;4972694;28;20212;-63
2024/01/06 11:21:21;;;;;;;6.20;4.35;;;7.80;99.90;;;;;;4972916;28;20273;-62
2024/01/06 11:24:17;;;;;;;8.02;5.10;;;7.90;99.90;;;;;;4949674;28;20209;-63
2024/01/06 11:26:45;;;;;;;7.10;4.95;;;7.90;99.90;;;;;;4953127;28;20279;-63
2024/01/06 11:29:13;;;;;;;5.03;4.50;;;8.00;99.90;;;;;;4953055;28;20213;-62
2024/01/06 11:31:41;;;;;;;8.18;5.00;;;8.00;99.90;;;;;;4953469;29;20235;-64
2024/01/06 11:34:18;;;;;;;9.40;4.90;;;8.00;99.90;;;;;;4957718;28;20209;-63
2024/01/06 11:36:47;;;;;;;7.70;4.55;;;8.00;99.90;;;;;;4948202;29;20275;-63
2024/01/06 11:39:38;;;;;;;8.88;4.85;;;7.90;99.90;;;;;;4950637;28;20260;-63
2024/01/06 11:42:06;;;;;;;7.03;4.88;;;8.00;99.90;;;;;;4947442;29;20637;-62
2024/01/06 11:44:38;;;;;;;11.07;5.22;;;8.00;99.90;;;;;;4949957;28;20205;-63
2024/01/06 11:47:06;;;;;;;8.30;4.70;;;8.10;99.90;;;;;;4951495;28;20252;-64
2024/01/06 11:49:35;;;;;;;8.27;4.80;;;8.20;99.90;;;;;;4952369;29;20244;-63
2024/01/06 11:52:03;;;;;;;9.77;5.05;;;8.40;99.90;;;;;;4953797;28;20233;-63
2024/01/06 11:54:31;;;;;;;7.38;4.72;;;8.50;99.90;;;;;;4961536;28;20216;-63
2024/01/06 11:56:59;;;;;;;6.72;5.20;;;8.70;99.90;;;;;;4968683;28;20236;-63
2024/01/06 11:59:27;;;;;;;7.35;4.50;;;8.70;99.90;;;;;;4968339;28;20209;-63
2024/01/06 12:01:55;;;;;;;8.50;4.82;;;8.80;99.90;;;;;;4972617;28;20299;-63
2024/01/06 12:04:25;;;;;;;4.70;3.78;;;8.80;99.90;;;;;;4972510;28;20216;-62
2024/01/06 12:06:55;;;;;;;5.05;4.03;;;8.80;99.90;;;;;;4971776;28;20299;-63
2024/01/06 12:09:25;;;;;;;4.28;3.88;;;8.80;99.90;;;;;;4971686;28;20299;-63
2024/01/06 12:12:02;;;;;;;4.93;3.97;;;8.70;99.90;;;;;;4972723;28;20210;-63
2024/01/06 12:14:30;;;;;;;6.63;3.83;;;8.70;99.90;;;;;;4972440;28;20259;-63
2024/01/06 12:17:02;;;;;;;5.30;3.78;;;8.60;99.90;;;;;;4972847;28;20270;-63
2024/01/06 12:19:31;;;;;;;8.68;4.47;;;8.50;99.90;;;;;;4972543;28;20216;-63
2024/01/06 12:22:02;;;;;;;7.45;4.57;;;8.50;99.90;;;;;;4972929;28;20219;-63
2024/01/06 12:24:30;;;;;;;6.00;5.07;;;8.50;99.90;;;;;;4964690;28;20213;-63
2024/01/06 12:26:58;;;;;;;6.93;4.32;;;8.50;99.90;;;;;;4957072;28;20243;-63
2024/01/06 12:29:28;;;;;;;7.40;4.78;;;8.50;99.90;;;;;;4972388;28;20295;-63
2024/01/06 12:31:56;;;;;;;3.85;3.55;;;8.50;99.90;;;;;;4964606;28;20738;-63
2024/01/06 12:34:24;;;;;;;6.40;4.30;;;8.50;99.90;;;;;;4964579;28;20204;-63
2024/01/06 12:36:53;;;;;;;5.30;3.88;;;8.50;99.90;;;;;;4972419;28;20236;-63
2024/01/06 12:39:24;;;;;;;6.18;4.32;;;8.40;99.90;;;;;;4971818;28;20208;-64
2024/01/06 12:41:52;;;;;;;4.68;3.60;;;8.40;99.90;;;;;;4972488;28;20223;-64
2024/01/06 12:44:20;;;;;;;6.18;3.58;;;8.40;99.90;;;;;;4972073;28;20212;-63
2024/01/06 12:46:48;;;;;;;9.43;3.88;;;8.40;99.90;;;;;;4952193;28;20672;-62
2024/01/06 12:49:16;;;;;;;5.35;3.63;;;8.40;99.90;;;;;;4952719;28;20257;-63
2024/01/06 12:51:44;;;;;;;6.90;4.05;;;8.50;99.90;;;;;;4953197;29;20292;-63
2024/01/06 12:54:12;;;;;;;6.05;3.83;;;8.40;99.90;;;;;;4966200;28;20238;-64
2024/01/06 12:56:41;;;;;;;5.38;4.13;;;8.40;99.90;;;;;;4963748;28;20659;-63
2024/01/06 12:59:09;;;;;;;6.50;4.45;;;8.40;99.90;;;;;;4971596;28;20232;-64
2024/01/06 13:01:37;;;;;;;5.47;3.83;;;8.40;99.90;;;;;;4972098;28;20292;-61